sensor_id;sensor_type;location;lat;lon;timestamp;temperature;humidity
74657;DHT22;63185;45.642;13.764;2022-11-15T00:00:47;13.70;72.70
74657;DHT22;63185;45.642;13.764;2022-11-15T00:03:27;13.80;72.60
74657;DHT22;63185;45.642;13.764;2022-11-15T00:05:52;13.70;72.90
74657;DHT22;63185;45.642;13.764;2022-11-15T00:08:18;13.80;73.10
74657;DHT22;63185;45.642;13.764;2022-11-15T00:10:58;13.70;73.40
74657;DHT22;63185;45.642;13.764;2022-11-15T00:13:24;13.70;73.80
74657;DHT22;63185;45.642;13.764;2022-11-15T00:15:49;13.70;73.30
74657;DHT22;63185;45.642;13.764;2022-11-15T00:18:15;13.70;73.00
74657;DHT22;63185;45.642;13.764;2022-11-15T00:20:41;13.60;72.60
74657;DHT22;63185;45.642;13.764;2022-11-15T00:23:08;13.70;72.60
74657;DHT22;63185;45.642;13.764;2022-11-15T00:25:34;13.70;72.30
74657;DHT22;63185;45.642;13.764;2022-11-15T00:28:01;13.70;72.40
74657;DHT22;63185;45.642;13.764;2022-11-15T00:30:27;13.70;72.40
74657;DHT22;63185;45.642;13.764;2022-11-15T00:32:53;13.70;72.80
74657;DHT22;63185;45.642;13.764;2022-11-15T00:35:19;13.70;72.70
74657;DHT22;63185;45.642;13.764;2022-11-15T00:37:45;13.70;72.30
74657;DHT22;63185;45.642;13.764;2022-11-15T00:40:12;13.70;72.10
74657;DHT22;63185;45.642;13.764;2022-11-15T00:42:38;13.60;72.00
74657;DHT22;63185;45.642;13.764;2022-11-15T00:45:04;13.60;72.00
74657;DHT22;63185;45.642;13.764;2022-11-15T00:47:30;13.60;72.30
74657;DHT22;63185;45.642;13.764;2022-11-15T00:49:56;13.60;72.20
74657;DHT22;63185;45.642;13.764;2022-11-15T00:52:21;13.60;72.30
74657;DHT22;63185;45.642;13.764;2022-11-15T00:54:47;13.60;72.60
74657;DHT22;63185;45.642;13.764;2022-11-15T00:57:13;13.70;72.80
74657;DHT22;63185;45.642;13.764;2022-11-15T00:59:38;13.60;73.00
74657;DHT22;63185;45.642;13.764;2022-11-15T01:02:04;13.60;73.00
74657;DHT22;63185;45.642;13.764;2022-11-15T01:04:30;13.70;73.10
74657;DHT22;63185;45.642;13.764;2022-11-15T01:06:55;13.60;73.10
74657;DHT22;63185;45.642;13.764;2022-11-15T01:09:21;13.60;73.10
74657;DHT22;63185;45.642;13.764;2022-11-15T01:11:47;13.60;73.30
74657;DHT22;63185;45.642;13.764;2022-11-15T01:14:13;13.70;73.30
74657;DHT22;63185;45.642;13.764;2022-11-15T01:16:39;13.60;73.30
74657;DHT22;63185;45.642;13.764;2022-11-15T01:19:04;13.60;73.70
74657;DHT22;63185;45.642;13.764;2022-11-15T01:21:30;13.50;73.80
74657;DHT22;63185;45.642;13.764;2022-11-15T01:23:56;13.50;73.60
74657;DHT22;63185;45.642;13.764;2022-11-15T01:26:23;13.40;73.50
74657;DHT22;63185;45.642;13.764;2022-11-15T01:28:50;13.40;73.50
74657;DHT22;63185;45.642;13.764;2022-11-15T01:31:18;13.40;73.40
74657;DHT22;63185;45.642;13.764;2022-11-15T01:33:45;13.40;73.70
74657;DHT22;63185;45.642;13.764;2022-11-15T01:36:14;13.40;73.90
74657;DHT22;63185;45.642;13.764;2022-11-15T01:38:40;13.30;74.00
74657;DHT22;63185;45.642;13.764;2022-11-15T01:41:06;13.30;73.80
74657;DHT22;63185;45.642;13.764;2022-11-15T01:43:34;13.30;73.70
74657;DHT22;63185;45.642;13.764;2022-11-15T01:48:50;13.30;73.70
74657;DHT22;63185;45.642;13.764;2022-11-15T01:51:18;13.30;73.80
74657;DHT22;63185;45.642;13.764;2022-11-15T01:53:47;13.30;73.80
74657;DHT22;63185;45.642;13.764;2022-11-15T01:56:16;13.20;73.90
74657;DHT22;63185;45.642;13.764;2022-11-15T01:58:43;13.20;73.90
74657;DHT22;63185;45.642;13.764;2022-11-15T02:01:10;13.20;73.70
74657;DHT22;63185;45.642;13.764;2022-11-15T02:03:48;13.20;73.50
74657;DHT22;63185;45.642;13.764;2022-11-15T02:06:15;13.10;73.60
74657;DHT22;63185;45.642;13.764;2022-11-15T02:08:42;13.20;73.80
74657;DHT22;63185;45.642;13.764;2022-11-15T02:11:08;13.30;73.60
74657;DHT22;63185;45.642;13.764;2022-11-15T02:13:35;13.30;73.70
74657;DHT22;63185;45.642;13.764;2022-11-15T02:18:34;13.40;73.00
74657;DHT22;63185;45.642;13.764;2022-11-15T02:27:08;13.50;73.20
74657;DHT22;63185;45.642;13.764;2022-11-15T02:32:44;13.50;72.60
74657;DHT22;63185;45.642;13.764;2022-11-15T02:35:29;13.50;72.30
74657;DHT22;63185;45.642;13.764;2022-11-15T02:38:17;13.50;72.40
74657;DHT22;63185;45.642;13.764;2022-11-15T02:43:19;13.50;72.30
74657;DHT22;63185;45.642;13.764;2022-11-15T02:46:18;13.60;72.10
74657;DHT22;63185;45.642;13.764;2022-11-15T02:48:45;13.60;72.20
74657;DHT22;63185;45.642;13.764;2022-11-15T02:51:12;13.60;72.60
74657;DHT22;63185;45.642;13.764;2022-11-15T02:53:38;13.70;72.60
74657;DHT22;63185;45.642;13.764;2022-11-15T02:56:04;13.70;72.50
74657;DHT22;63185;45.642;13.764;2022-11-15T03:06:59;13.60;73.00
74657;DHT22;63185;45.642;13.764;2022-11-15T03:09:38;13.50;73.00
74657;DHT22;63185;45.642;13.764;2022-11-15T03:12:18;13.50;72.50
74657;DHT22;63185;45.642;13.764;2022-11-15T03:15:18;13.50;72.30
74657;DHT22;63185;45.642;13.764;2022-11-15T03:18:04;13.50;72.50
74657;DHT22;63185;45.642;13.764;2022-11-15T03:20:32;13.50;72.40
74657;DHT22;63185;45.642;13.764;2022-11-15T03:23:10;13.60;72.00
74657;DHT22;63185;45.642;13.764;2022-11-15T03:25:40;13.50;71.90
74657;DHT22;63185;45.642;13.764;2022-11-15T03:28:09;13.50;71.70
74657;DHT22;63185;45.642;13.764;2022-11-15T03:30:36;13.50;71.50
74657;DHT22;63185;45.642;13.764;2022-11-15T03:33:04;13.50;71.60
74657;DHT22;63185;45.642;13.764;2022-11-15T03:35:33;13.50;71.90
74657;DHT22;63185;45.642;13.764;2022-11-15T03:38:29;13.40;72.30
74657;DHT22;63185;45.642;13.764;2022-11-15T03:41:00;13.50;72.40
74657;DHT22;63185;45.642;13.764;2022-11-15T03:48:27;13.40;72.50
74657;DHT22;63185;45.642;13.764;2022-11-15T03:50:55;13.50;72.20
74657;DHT22;63185;45.642;13.764;2022-11-15T03:53:21;13.50;71.80
74657;DHT22;63185;45.642;13.764;2022-11-15T03:55:47;13.50;71.70
74657;DHT22;63185;45.642;13.764;2022-11-15T03:58:13;13.60;71.60
74657;DHT22;63185;45.642;13.764;2022-11-15T04:00:38;13.60;71.50
74657;DHT22;63185;45.642;13.764;2022-11-15T04:03:04;13.60;71.30
74657;DHT22;63185;45.642;13.764;2022-11-15T04:05:30;13.70;71.30
74657;DHT22;63185;45.642;13.764;2022-11-15T04:07:55;13.60;71.40
74657;DHT22;63185;45.642;13.764;2022-11-15T04:10:21;13.60;71.40
74657;DHT22;63185;45.642;13.764;2022-11-15T04:12:47;13.60;71.40
74657;DHT22;63185;45.642;13.764;2022-11-15T04:15:21;13.70;71.50
74657;DHT22;63185;45.642;13.764;2022-11-15T04:17:50;13.70;71.30
74657;DHT22;63185;45.642;13.764;2022-11-15T04:20:27;13.70;71.30
74657;DHT22;63185;45.642;13.764;2022-11-15T04:23:13;13.70;71.30
74657;DHT22;63185;45.642;13.764;2022-11-15T04:26:03;13.70;71.40
74657;DHT22;63185;45.642;13.764;2022-11-15T04:28:29;13.70;71.10
74657;DHT22;63185;45.642;13.764;2022-11-15T04:30:56;13.70;71.20
74657;DHT22;63185;45.642;13.764;2022-11-15T04:33:21;13.70;71.30
74657;DHT22;63185;45.642;13.764;2022-11-15T04:35:48;13.60;71.30
74657;DHT22;63185;45.642;13.764;2022-11-15T04:38:34;13.70;71.40
74657;DHT22;63185;45.642;13.764;2022-11-15T04:41:00;13.70;71.20
74657;DHT22;63185;45.642;13.764;2022-11-15T04:43:25;13.70;71.40
74657;DHT22;63185;45.642;13.764;2022-11-15T04:45:51;13.70;71.60
74657;DHT22;63185;45.642;13.764;2022-11-15T04:48:17;13.70;71.80
74657;DHT22;63185;45.642;13.764;2022-11-15T04:50:42;13.70;71.70
74657;DHT22;63185;45.642;13.764;2022-11-15T04:53:08;13.70;71.80
74657;DHT22;63185;45.642;13.764;2022-11-15T04:55:34;13.70;71.90
74657;DHT22;63185;45.642;13.764;2022-11-15T04:58:00;13.70;71.80
74657;DHT22;63185;45.642;13.764;2022-11-15T05:00:27;13.70;71.70
74657;DHT22;63185;45.642;13.764;2022-11-15T05:02:53;13.80;71.30
74657;DHT22;63185;45.642;13.764;2022-11-15T05:05:38;13.70;71.00
74657;DHT22;63185;45.642;13.764;2022-11-15T05:08:04;13.70;70.50
74657;DHT22;63185;45.642;13.764;2022-11-15T05:10:30;13.80;70.40
74657;DHT22;63185;45.642;13.764;2022-11-15T05:12:55;13.70;70.60
74657;DHT22;63185;45.642;13.764;2022-11-15T05:15:21;13.80;70.40
74657;DHT22;63185;45.642;13.764;2022-11-15T05:17:47;13.90;70.20
74657;DHT22;63185;45.642;13.764;2022-11-15T05:20:12;13.90;70.20
74657;DHT22;63185;45.642;13.764;2022-11-15T05:22:39;13.90;70.20
74657;DHT22;63185;45.642;13.764;2022-11-15T05:25:05;13.90;70.30
74657;DHT22;63185;45.642;13.764;2022-11-15T05:27:31;13.90;70.50
74657;DHT22;63185;45.642;13.764;2022-11-15T05:29:57;13.90;70.50
74657;DHT22;63185;45.642;13.764;2022-11-15T05:32:22;13.90;71.10
74657;DHT22;63185;45.642;13.764;2022-11-15T05:34:49;13.90;71.20
74657;DHT22;63185;45.642;13.764;2022-11-15T05:37:15;13.90;71.30
74657;DHT22;63185;45.642;13.764;2022-11-15T05:39:41;13.90;71.70
74657;DHT22;63185;45.642;13.764;2022-11-15T05:42:15;13.90;71.90
74657;DHT22;63185;45.642;13.764;2022-11-15T05:44:44;13.90;71.60
74657;DHT22;63185;45.642;13.764;2022-11-15T05:47:16;13.90;71.40
74657;DHT22;63185;45.642;13.764;2022-11-15T05:49:43;13.90;71.70
74657;DHT22;63185;45.642;13.764;2022-11-15T05:52:12;13.90;71.60
74657;DHT22;63185;45.642;13.764;2022-11-15T05:54:38;13.90;71.20
74657;DHT22;63185;45.642;13.764;2022-11-15T05:57:04;13.90;71.00
74657;DHT22;63185;45.642;13.764;2022-11-15T05:59:31;13.90;70.50
74657;DHT22;63185;45.642;13.764;2022-11-15T06:01:57;14.00;70.10
74657;DHT22;63185;45.642;13.764;2022-11-15T06:04:23;14.00;69.90
74657;DHT22;63185;45.642;13.764;2022-11-15T06:06:49;14.00;69.70
74657;DHT22;63185;45.642;13.764;2022-11-15T06:09:14;14.10;69.60
74657;DHT22;63185;45.642;13.764;2022-11-15T06:11:40;14.10;70.00
74657;DHT22;63185;45.642;13.764;2022-11-15T06:14:06;14.10;70.10
74657;DHT22;63185;45.642;13.764;2022-11-15T06:16:31;14.10;70.20
74657;DHT22;63185;45.642;13.764;2022-11-15T06:18:57;14.20;70.40
74657;DHT22;63185;45.642;13.764;2022-11-15T06:21:23;14.20;70.80
74657;DHT22;63185;45.642;13.764;2022-11-15T06:23:48;14.20;70.60
74657;DHT22;63185;45.642;13.764;2022-11-15T06:26:14;14.20;70.80
74657;DHT22;63185;45.642;13.764;2022-11-15T06:28:40;14.20;70.90
74657;DHT22;63185;45.642;13.764;2022-11-15T06:31:08;14.30;71.20
74657;DHT22;63185;45.642;13.764;2022-11-15T06:33:34;14.20;71.00
74657;DHT22;63185;45.642;13.764;2022-11-15T06:36:05;14.30;71.20
74657;DHT22;63185;45.642;13.764;2022-11-15T06:38:31;14.30;71.50
74657;DHT22;63185;45.642;13.764;2022-11-15T06:41:05;14.20;70.90
74657;DHT22;63185;45.642;13.764;2022-11-15T06:43:32;14.20;71.00
74657;DHT22;63185;45.642;13.764;2022-11-15T06:45:58;14.30;71.50
74657;DHT22;63185;45.642;13.764;2022-11-15T06:48:25;14.20;71.00
74657;DHT22;63185;45.642;13.764;2022-11-15T06:50:56;14.20;70.80
74657;DHT22;63185;45.642;13.764;2022-11-15T06:53:23;14.20;71.00
74657;DHT22;63185;45.642;13.764;2022-11-15T06:55:49;14.20;71.10
74657;DHT22;63185;45.642;13.764;2022-11-15T06:58:15;14.20;71.40
74657;DHT22;63185;45.642;13.764;2022-11-15T07:00:41;14.20;71.60
74657;DHT22;63185;45.642;13.764;2022-11-15T07:03:07;14.20;71.90
74657;DHT22;63185;45.642;13.764;2022-11-15T07:05:33;14.20;71.80
74657;DHT22;63185;45.642;13.764;2022-11-15T07:07:59;14.20;71.40
74657;DHT22;63185;45.642;13.764;2022-11-15T07:10:27;14.20;71.20
74657;DHT22;63185;45.642;13.764;2022-11-15T07:12:53;14.30;71.20
74657;DHT22;63185;45.642;13.764;2022-11-15T07:15:20;14.30;71.30
74657;DHT22;63185;45.642;13.764;2022-11-15T07:17:46;14.40;71.30
74657;DHT22;63185;45.642;13.764;2022-11-15T07:20:13;14.40;71.20
74657;DHT22;63185;45.642;13.764;2022-11-15T07:22:40;14.50;70.60
74657;DHT22;63185;45.642;13.764;2022-11-15T07:25:06;14.50;70.40
74657;DHT22;63185;45.642;13.764;2022-11-15T07:27:32;14.60;70.20
74657;DHT22;63185;45.642;13.764;2022-11-15T07:29:57;14.60;69.70
74657;DHT22;63185;45.642;13.764;2022-11-15T07:32:23;14.70;69.40
74657;DHT22;63185;45.642;13.764;2022-11-15T07:34:49;14.80;69.20
74657;DHT22;63185;45.642;13.764;2022-11-15T07:37:15;14.80;69.20
74657;DHT22;63185;45.642;13.764;2022-11-15T07:39:42;14.90;69.20
74657;DHT22;63185;45.642;13.764;2022-11-15T07:42:08;15.00;69.00
74657;DHT22;63185;45.642;13.764;2022-11-15T07:44:52;15.00;69.10
74657;DHT22;63185;45.642;13.764;2022-11-15T07:47:17;15.10;68.90
74657;DHT22;63185;45.642;13.764;2022-11-15T07:49:43;15.20;68.90
74657;DHT22;63185;45.642;13.764;2022-11-15T07:52:09;15.20;68.80
74657;DHT22;63185;45.642;13.764;2022-11-15T07:54:34;15.30;68.60
74657;DHT22;63185;45.642;13.764;2022-11-15T07:57:00;15.30;68.20
74657;DHT22;63185;45.642;13.764;2022-11-15T07:59:26;15.30;67.90
74657;DHT22;63185;45.642;13.764;2022-11-15T08:01:51;15.50;68.10
74657;DHT22;63185;45.642;13.764;2022-11-15T08:04:20;15.60;68.20
74657;DHT22;63185;45.642;13.764;2022-11-15T08:06:45;15.60;68.20
74657;DHT22;63185;45.642;13.764;2022-11-15T08:09:11;15.70;68.10
74657;DHT22;63185;45.642;13.764;2022-11-15T08:11:37;15.80;67.90
74657;DHT22;63185;45.642;13.764;2022-11-15T08:14:03;15.90;67.80
74657;DHT22;63185;45.642;13.764;2022-11-15T08:16:28;16.00;67.50
74657;DHT22;63185;45.642;13.764;2022-11-15T08:18:54;16.00;67.20
74657;DHT22;63185;45.642;13.764;2022-11-15T08:21:21;16.10;67.10
74657;DHT22;63185;45.642;13.764;2022-11-15T08:23:47;16.10;67.00
74657;DHT22;63185;45.642;13.764;2022-11-15T08:26:13;16.20;67.10
74657;DHT22;63185;45.642;13.764;2022-11-15T08:28:39;16.30;67.00
74657;DHT22;63185;45.642;13.764;2022-11-15T08:31:05;16.40;66.60
74657;DHT22;63185;45.642;13.764;2022-11-15T08:33:31;16.50;66.70
74657;DHT22;63185;45.642;13.764;2022-11-15T08:35:59;16.60;66.30
74657;DHT22;63185;45.642;13.764;2022-11-15T08:38:25;16.60;66.40
74657;DHT22;63185;45.642;13.764;2022-11-15T08:40:52;16.70;66.60
74657;DHT22;63185;45.642;13.764;2022-11-15T08:43:19;16.70;66.60
74657;DHT22;63185;45.642;13.764;2022-11-15T08:45:45;16.80;66.30
74657;DHT22;63185;45.642;13.764;2022-11-15T08:48:11;16.90;66.10
74657;DHT22;63185;45.642;13.764;2022-11-15T08:50:37;16.90;66.10
74657;DHT22;63185;45.642;13.764;2022-11-15T08:53:10;17.00;65.80
74657;DHT22;63185;45.642;13.764;2022-11-15T08:55:37;17.00;65.30
74657;DHT22;63185;45.642;13.764;2022-11-15T08:58:03;17.10;65.00
74657;DHT22;63185;45.642;13.764;2022-11-15T09:00:29;17.10;65.00
74657;DHT22;63185;45.642;13.764;2022-11-15T09:02:55;17.10;64.60
74657;DHT22;63185;45.642;13.764;2022-11-15T09:05:21;17.20;64.40
74657;DHT22;63185;45.642;13.764;2022-11-15T09:07:46;17.20;64.50
74657;DHT22;63185;45.642;13.764;2022-11-15T09:10:12;17.20;64.50
74657;DHT22;63185;45.642;13.764;2022-11-15T09:12:38;17.40;64.40
74657;DHT22;63185;45.642;13.764;2022-11-15T09:15:05;17.40;64.10
74657;DHT22;63185;45.642;13.764;2022-11-15T09:17:31;17.50;64.00
74657;DHT22;63185;45.642;13.764;2022-11-15T09:19:57;17.60;63.90
74657;DHT22;63185;45.642;13.764;2022-11-15T09:22:23;17.70;63.40
74657;DHT22;63185;45.642;13.764;2022-11-15T09:24:48;17.80;63.20
74657;DHT22;63185;45.642;13.764;2022-11-15T09:27:14;17.90;62.60
74657;DHT22;63185;45.642;13.764;2022-11-15T09:29:40;17.90;62.30
74657;DHT22;63185;45.642;13.764;2022-11-15T09:32:06;17.80;62.50
74657;DHT22;63185;45.642;13.764;2022-11-15T09:34:32;17.80;62.30
74657;DHT22;63185;45.642;13.764;2022-11-15T09:36:57;17.80;62.70
74657;DHT22;63185;45.642;13.764;2022-11-15T09:39:23;17.80;62.20
74657;DHT22;63185;45.642;13.764;2022-11-15T09:44:58;18.00;63.00
74657;DHT22;63185;45.642;13.764;2022-11-15T09:49:56;18.10;62.40
74657;DHT22;63185;45.642;13.764;2022-11-15T09:52:24;18.10;62.00
74657;DHT22;63185;45.642;13.764;2022-11-15T09:54:51;18.10;62.20
74657;DHT22;63185;45.642;13.764;2022-11-15T10:03:12;18.10;62.00
74657;DHT22;63185;45.642;13.764;2022-11-15T10:05:50;18.10;62.10
74657;DHT22;63185;45.642;13.764;2022-11-15T10:08:50;18.20;62.20
74657;DHT22;63185;45.642;13.764;2022-11-15T10:11:23;18.10;62.50
74657;DHT22;63185;45.642;13.764;2022-11-15T10:13:50;18.10;62.60
74657;DHT22;63185;45.642;13.764;2022-11-15T10:24:36;18.10;61.90
74657;DHT22;63185;45.642;13.764;2022-11-15T10:27:18;18.20;61.70
74657;DHT22;63185;45.642;13.764;2022-11-15T10:29:49;18.30;61.60
74657;DHT22;63185;45.642;13.764;2022-11-15T10:32:17;18.30;61.50
74657;DHT22;63185;45.642;13.764;2022-11-15T10:34:44;18.30;61.40
74657;DHT22;63185;45.642;13.764;2022-11-15T10:37:09;18.30;61.30
74657;DHT22;63185;45.642;13.764;2022-11-15T10:39:35;18.30;62.00
74657;DHT22;63185;45.642;13.764;2022-11-15T10:42:27;18.30;62.60
74657;DHT22;63185;45.642;13.764;2022-11-15T10:44:53;18.30;61.70
74657;DHT22;63185;45.642;13.764;2022-11-15T10:47:31;18.30;61.70
74657;DHT22;63185;45.642;13.764;2022-11-15T10:50:04;18.20;61.40
74657;DHT22;63185;45.642;13.764;2022-11-15T10:52:32;18.20;61.80
74657;DHT22;63185;45.642;13.764;2022-11-15T10:57:37;18.20;61.50
74657;DHT22;63185;45.642;13.764;2022-11-15T11:05:38;18.50;60.90
74657;DHT22;63185;45.642;13.764;2022-11-15T11:10:36;18.90;60.50
74657;DHT22;63185;45.642;13.764;2022-11-15T11:13:22;18.90;60.00
74657;DHT22;63185;45.642;13.764;2022-11-15T11:15:55;19.10;59.20
74657;DHT22;63185;45.642;13.764;2022-11-15T11:18:34;19.10;58.70
74657;DHT22;63185;45.642;13.764;2022-11-15T11:21:10;18.90;58.60
74657;DHT22;63185;45.642;13.764;2022-11-15T11:23:52;18.90;58.40
74657;DHT22;63185;45.642;13.764;2022-11-15T11:31:58;18.40;58.70
74657;DHT22;63185;45.642;13.764;2022-11-15T11:40:30;18.10;59.40
74657;DHT22;63185;45.642;13.764;2022-11-15T11:46:09;18.20;59.00
74657;DHT22;63185;45.642;13.764;2022-11-15T11:48:44;18.10;59.20
74657;DHT22;63185;45.642;13.764;2022-11-15T11:51:32;17.90;60.30
74657;DHT22;63185;45.642;13.764;2022-11-15T11:54:22;17.60;61.10
74657;DHT22;63185;45.642;13.764;2022-11-15T11:56:50;17.60;61.50
74657;DHT22;63185;45.642;13.764;2022-11-15T11:59:36;17.60;61.60
74657;DHT22;63185;45.642;13.764;2022-11-15T12:02:16;17.60;61.70
74657;DHT22;63185;45.642;13.764;2022-11-15T12:04:49;17.60;61.70
74657;DHT22;63185;45.642;13.764;2022-11-15T12:09:58;17.90;61.60
74657;DHT22;63185;45.642;13.764;2022-11-15T12:13:08;18.20;61.20
74657;DHT22;63185;45.642;13.764;2022-11-15T12:18:37;18.60;58.40
74657;DHT22;63185;45.642;13.764;2022-11-15T12:24:34;18.50;58.70
74657;DHT22;63185;45.642;13.764;2022-11-15T12:30:16;18.10;59.10
74657;DHT22;63185;45.642;13.764;2022-11-15T12:32:57;18.10;60.00
74657;DHT22;63185;45.642;13.764;2022-11-15T12:37:58;17.90;60.00
74657;DHT22;63185;45.642;13.764;2022-11-15T12:40:35;17.80;60.50
74657;DHT22;63185;45.642;13.764;2022-11-15T12:45:45;17.60;61.00
74657;DHT22;63185;45.642;13.764;2022-11-15T12:51:09;17.60;61.10
74657;DHT22;63185;45.642;13.764;2022-11-15T12:53:35;17.50;62.00
74657;DHT22;63185;45.642;13.764;2022-11-15T12:58:58;17.40;61.90
74657;DHT22;63185;45.642;13.764;2022-11-15T13:07:04;17.30;63.20
74657;DHT22;63185;45.642;13.764;2022-11-15T13:17:39;17.20;63.30
74657;DHT22;63185;45.642;13.764;2022-11-15T13:20:14;17.10;63.40
74657;DHT22;63185;45.642;13.764;2022-11-15T13:31:29;17.00;62.80
74657;DHT22;63185;45.642;13.764;2022-11-15T13:33:59;17.10;62.20
74657;DHT22;63185;45.642;13.764;2022-11-15T13:36:28;17.10;61.60
74657;DHT22;63185;45.642;13.764;2022-11-15T13:38:56;17.10;61.70
74657;DHT22;63185;45.642;13.764;2022-11-15T13:41:25;17.10;61.40
74657;DHT22;63185;45.642;13.764;2022-11-15T13:43:52;17.20;61.30
74657;DHT22;63185;45.642;13.764;2022-11-15T13:48:51;17.30;60.50
74657;DHT22;63185;45.642;13.764;2022-11-15T13:54:06;17.20;61.10
74657;DHT22;63185;45.642;13.764;2022-11-15T13:56:33;17.20;61.50
74657;DHT22;63185;45.642;13.764;2022-11-15T13:59:00;17.10;62.40
74657;DHT22;63185;45.642;13.764;2022-11-15T14:01:29;17.10;62.90
74657;DHT22;63185;45.642;13.764;2022-11-15T14:03:58;17.00;63.20
74657;DHT22;63185;45.642;13.764;2022-11-15T14:06:27;17.00;63.20
74657;DHT22;63185;45.642;13.764;2022-11-15T14:11:25;17.10;63.20
74657;DHT22;63185;45.642;13.764;2022-11-15T14:16:40;16.80;63.60
74657;DHT22;63185;45.642;13.764;2022-11-15T14:19:33;16.60;63.70
74657;DHT22;63185;45.642;13.764;2022-11-15T14:22:17;16.70;63.90
74657;DHT22;63185;45.642;13.764;2022-11-15T14:24:45;16.70;63.80
74657;DHT22;63185;45.642;13.764;2022-11-15T14:27:28;16.70;63.70
74657;DHT22;63185;45.642;13.764;2022-11-15T14:29:55;16.60;63.70
74657;DHT22;63185;45.642;13.764;2022-11-15T14:32:47;16.60;63.80
74657;DHT22;63185;45.642;13.764;2022-11-15T14:35:23;16.60;64.60
74657;DHT22;63185;45.642;13.764;2022-11-15T14:37:49;16.50;65.10
74657;DHT22;63185;45.642;13.764;2022-11-15T14:40:18;16.50;65.50
74657;DHT22;63185;45.642;13.764;2022-11-15T14:42:44;16.50;65.00
74657;DHT22;63185;45.642;13.764;2022-11-15T14:45:19;16.50;64.80
74657;DHT22;63185;45.642;13.764;2022-11-15T14:47:45;16.50;64.70
74657;DHT22;63185;45.642;13.764;2022-11-15T14:50:21;16.40;65.20
74657;DHT22;63185;45.642;13.764;2022-11-15T14:52:47;16.50;65.20
74657;DHT22;63185;45.642;13.764;2022-11-15T14:57:43;16.40;65.80
74657;DHT22;63185;45.642;13.764;2022-11-15T15:00:09;16.30;65.90
74657;DHT22;63185;45.642;13.764;2022-11-15T15:02:36;16.30;66.30
74657;DHT22;63185;45.642;13.764;2022-11-15T15:05:27;16.30;65.60
74657;DHT22;63185;45.642;13.764;2022-11-15T15:07:55;16.30;66.00
74657;DHT22;63185;45.642;13.764;2022-11-15T15:10:21;16.30;65.30
74657;DHT22;63185;45.642;13.764;2022-11-15T15:12:48;16.20;65.30
74657;DHT22;63185;45.642;13.764;2022-11-15T15:15:25;16.10;65.50
74657;DHT22;63185;45.642;13.764;2022-11-15T15:17:51;16.10;65.40
74657;DHT22;63185;45.642;13.764;2022-11-15T15:20:17;16.10;66.00
74657;DHT22;63185;45.642;13.764;2022-11-15T15:22:44;16.00;67.00
74657;DHT22;63185;45.642;13.764;2022-11-15T15:25:25;16.00;67.30
74657;DHT22;63185;45.642;13.764;2022-11-15T15:27:53;16.00;67.50
74657;DHT22;63185;45.642;13.764;2022-11-15T15:30:19;15.90;67.60
74657;DHT22;63185;45.642;13.764;2022-11-15T15:32:45;16.00;67.50
74657;DHT22;63185;45.642;13.764;2022-11-15T15:35:12;16.00;67.20
74657;DHT22;63185;45.642;13.764;2022-11-15T15:37:38;16.00;67.80
74657;DHT22;63185;45.642;13.764;2022-11-15T15:40:12;16.00;67.10
74657;DHT22;63185;45.642;13.764;2022-11-15T15:42:38;15.90;67.20
74657;DHT22;63185;45.642;13.764;2022-11-15T15:45:05;15.90;67.30
74657;DHT22;63185;45.642;13.764;2022-11-15T15:47:31;15.90;67.60
74657;DHT22;63185;45.642;13.764;2022-11-15T15:49:56;15.90;67.60
74657;DHT22;63185;45.642;13.764;2022-11-15T15:52:22;15.90;67.80
74657;DHT22;63185;45.642;13.764;2022-11-15T15:54:48;15.80;67.80
74657;DHT22;63185;45.642;13.764;2022-11-15T15:57:15;15.80;67.80
74657;DHT22;63185;45.642;13.764;2022-11-15T15:59:41;15.80;68.00
74657;DHT22;63185;45.642;13.764;2022-11-15T16:02:11;15.80;68.20
74657;DHT22;63185;45.642;13.764;2022-11-15T16:04:37;15.80;67.50
74657;DHT22;63185;45.642;13.764;2022-11-15T16:07:03;15.90;67.90
74657;DHT22;63185;45.642;13.764;2022-11-15T16:09:30;15.90;67.90
74657;DHT22;63185;45.642;13.764;2022-11-15T16:12:14;15.90;68.00
74657;DHT22;63185;45.642;13.764;2022-11-15T16:14:42;15.80;68.20
74657;DHT22;63185;45.642;13.764;2022-11-15T16:17:15;15.80;68.10
74657;DHT22;63185;45.642;13.764;2022-11-15T16:19:42;15.80;68.60
74657;DHT22;63185;45.642;13.764;2022-11-15T16:22:08;15.70;68.80
74657;DHT22;63185;45.642;13.764;2022-11-15T16:24:33;15.80;68.70
74657;DHT22;63185;45.642;13.764;2022-11-15T16:26:59;15.70;68.70
74657;DHT22;63185;45.642;13.764;2022-11-15T16:29:25;15.80;68.70
74657;DHT22;63185;45.642;13.764;2022-11-15T16:31:51;15.80;68.70
74657;DHT22;63185;45.642;13.764;2022-11-15T16:34:17;15.70;68.90
74657;DHT22;63185;45.642;13.764;2022-11-15T16:36:43;15.80;69.00
74657;DHT22;63185;45.642;13.764;2022-11-15T16:39:12;15.70;69.10
74657;DHT22;63185;45.642;13.764;2022-11-15T16:41:44;15.70;68.90
74657;DHT22;63185;45.642;13.764;2022-11-15T16:44:13;15.70;69.10
74657;DHT22;63185;45.642;13.764;2022-11-15T16:46:43;15.70;68.40
74657;DHT22;63185;45.642;13.764;2022-11-15T16:49:14;15.70;68.70
74657;DHT22;63185;45.642;13.764;2022-11-15T16:51:41;15.70;68.80
74657;DHT22;63185;45.642;13.764;2022-11-15T16:54:07;15.60;69.30
74657;DHT22;63185;45.642;13.764;2022-11-15T16:56:36;15.70;69.30
74657;DHT22;63185;45.642;13.764;2022-11-15T16:59:02;15.70;69.40
74657;DHT22;63185;45.642;13.764;2022-11-15T17:01:33;15.70;69.80
74657;DHT22;63185;45.642;13.764;2022-11-15T17:04:11;15.70;69.80
74657;DHT22;63185;45.642;13.764;2022-11-15T17:06:38;15.70;70.10
74657;DHT22;63185;45.642;13.764;2022-11-15T17:09:05;15.70;70.30
74657;DHT22;63185;45.642;13.764;2022-11-15T17:11:31;15.70;70.00
74657;DHT22;63185;45.642;13.764;2022-11-15T17:13:58;15.70;70.10
74657;DHT22;63185;45.642;13.764;2022-11-15T17:16:24;15.60;70.10
74657;DHT22;63185;45.642;13.764;2022-11-15T17:18:51;15.60;70.40
74657;DHT22;63185;45.642;13.764;2022-11-15T17:21:19;15.60;70.10
74657;DHT22;63185;45.642;13.764;2022-11-15T17:23:45;15.70;69.90
74657;DHT22;63185;45.642;13.764;2022-11-15T17:26:12;15.70;69.40
74657;DHT22;63185;45.642;13.764;2022-11-15T17:28:39;15.70;69.10
74657;DHT22;63185;45.642;13.764;2022-11-15T17:31:06;15.60;69.40
74657;DHT22;63185;45.642;13.764;2022-11-15T17:33:33;15.60;69.20
74657;DHT22;63185;45.642;13.764;2022-11-15T17:36:01;15.60;69.20
74657;DHT22;63185;45.642;13.764;2022-11-15T17:38:27;15.60;69.40
74657;DHT22;63185;45.642;13.764;2022-11-15T17:41:05;15.60;69.20